Time;durP1;ratioP1;P1;durP2;ratioP2;P2;SDS_P1;SDS_P2;PMS_P1;PMS_P2;Temp;Humidity;BMP_temperature;BMP_pressure;BME280_temperature;BME280_humidity;BME280_pressure;Samples;Min_cycle;Max_cycle;Signal;HPM_P1;HPM_P2
2023/06/14 00:01:50;;;;;;;0.40;0.40;;;14.60;80.00;;;;;;5062312;28;20758;-80
2023/06/14 00:04:16;;;;;;;0.45;0.45;;;14.50;80.70;;;;;;5063695;28;20044;-80
2023/06/14 00:06:45;;;;;;;0.43;0.43;;;14.40;80.90;;;;;;5066287;28;20055;-80
2023/06/14 00:09:14;;;;;;;0.35;0.35;;;14.30;81.10;;;;;;5068485;28;20447;-81
2023/06/14 00:11:41;;;;;;;0.75;0.65;;;14.20;81.70;;;;;;5069101;28;20074;-80
2023/06/14 00:14:07;;;;;;;0.63;0.40;;;14.10;84.00;;;;;;5064619;28;20127;-80
2023/06/14 00:16:34;;;;;;;0.22;0.22;;;14.10;84.90;;;;;;5044515;28;20128;-80
2023/06/14 00:19:03;;;;;;;0.28;0.28;;;13.90;85.40;;;;;;5061465;28;20047;-80
2023/06/14 00:21:29;;;;;;;0.90;0.85;;;13.90;86.70;;;;;;5065565;28;20049;-80
2023/06/14 00:23:57;;;;;;;0.32;0.32;;;13.80;86.20;;;;;;5055947;28;20071;-79
2023/06/14 00:26:22;;;;;;;0.50;0.50;;;13.90;85.90;;;;;;5068600;28;20059;-80
2023/06/14 00:28:48;;;;;;;0.55;0.55;;;13.90;84.60;;;;;;5064379;28;20303;-80
2023/06/14 00:31:14;;;;;;;0.73;0.73;;;13.90;84.50;;;;;;5064631;28;20412;-80
2023/06/14 00:33:39;;;;;;;0.68;0.68;;;14.00;83.60;;;;;;5059787;28;20044;-80
2023/06/14 00:36:05;;;;;;;2.05;0.90;;;13.90;83.50;;;;;;5069721;28;20035;-81
2023/06/14 00:38:31;;;;;;;0.70;0.70;;;14.00;83.70;;;;;;5063851;28;20045;-80
2023/06/14 00:40:56;;;;;;;0.55;0.55;;;14.10;83.40;;;;;;5053997;28;20052;-80
2023/06/14 00:43:22;;;;;;;0.57;0.57;;;14.10;83.90;;;;;;5066748;28;20485;-80
2023/06/14 00:45:49;;;;;;;0.65;0.65;;;14.10;83.70;;;;;;5061876;28;20040;-81
2023/06/14 00:48:15;;;;;;;0.37;0.37;;;14.10;84.00;;;;;;5067362;28;20117;-80
2023/06/14 00:50:41;;;;;;;0.30;0.30;;;14.10;83.40;;;;;;5061595;28;20106;-80
2023/06/14 00:53:07;;;;;;;0.30;0.30;;;14.10;84.30;;;;;;5061825;28;20045;-79
2023/06/14 00:55:34;;;;;;;0.40;0.40;;;14.00;84.50;;;;;;5055502;28;20041;-80
2023/06/14 00:58:00;;;;;;;1.23;1.13;;;14.00;84.90;;;;;;5066135;28;20044;-80
2023/06/14 01:00:28;;;;;;;3.33;0.70;;;14.00;85.30;;;;;;5060852;28;20103;-80
2023/06/14 01:02:54;;;;;;;0.60;0.60;;;14.10;85.30;;;;;;5059503;28;20137;-80
2023/06/14 01:05:20;;;;;;;1.10;0.93;;;14.00;85.90;;;;;;5061075;28;20044;-80
2023/06/14 01:08:11;;;;;;;2.20;0.65;;;14.00;85.90;;;;;;5068332;28;20056;-80
2023/06/14 01:11:01;;;;;;;0.57;0.57;;;14.00;85.70;;;;;;5062351;28;20044;-80
2023/06/14 01:13:37;;;;;;;0.43;0.43;;;14.00;86.20;;;;;;5064558;28;20047;-80
2023/06/14 01:16:04;;;;;;;0.73;0.73;;;14.00;87.10;;;;;;5065295;28;20043;-80
2023/06/14 01:18:31;;;;;;;0.73;0.73;;;13.90;86.90;;;;;;5063790;28;20409;-80
2023/06/14 01:20:56;;;;;;;0.40;0.40;;;13.90;87.20;;;;;;5065679;28;20059;-80
2023/06/14 01:23:23;;;;;;;0.50;0.50;;;14.00;87.10;;;;;;5065623;28;20036;-80
2023/06/14 01:25:52;;;;;;;0.35;0.35;;;13.90;87.80;;;;;;5067626;28;20112;-80
2023/06/14 01:28:21;;;;;;;0.30;0.30;;;13.90;88.70;;;;;;5062633;28;20083;-80
2023/06/14 01:30:52;;;;;;;1.25;0.60;;;13.90;88.60;;;;;;5061446;28;20061;-80
2023/06/14 01:33:22;;;;;;;0.50;0.50;;;13.90;89.00;;;;;;5060557;28;20075;-80
2023/06/14 01:35:53;;;;;;;0.30;0.30;;;13.90;89.10;;;;;;5054830;28;20090;-79
2023/06/14 01:38:22;;;;;;;0.22;0.22;;;13.90;90.00;;;;;;5062104;28;20139;-80
2023/06/14 01:40:48;;;;;;;0.40;0.40;;;13.90;90.10;;;;;;5066895;28;20654;-80
2023/06/14 01:43:15;;;;;;;0.95;0.95;;;13.80;90.20;;;;;;5063017;28;20041;-80
2023/06/14 01:45:47;;;;;;;0.33;0.33;;;13.80;90.10;;;;;;5060544;28;20047;-80
2023/06/14 01:48:13;;;;;;;0.50;0.50;;;13.80;90.40;;;;;;5066404;28;20044;-80
2023/06/14 01:50:39;;;;;;;0.40;0.40;;;13.80;90.40;;;;;;5048782;28;20048;-80
2023/06/14 01:53:08;;;;;;;0.35;0.35;;;13.80;91.00;;;;;;5053365;28;20109;-80
2023/06/14 01:55:37;;;;;;;0.75;0.75;;;13.80;91.10;;;;;;5057057;28;20436;-80
2023/06/14 01:58:04;;;;;;;0.32;0.32;;;13.80;91.20;;;;;;5064052;28;20460;-83
2023/06/14 02:00:30;;;;;;;0.30;0.30;;;13.80;91.10;;;;;;5063027;28;20084;-82
2023/06/14 02:02:56;;;;;;;0.30;0.30;;;13.80;91.40;;;;;;5066503;28;20453;-83
2023/06/14 02:05:22;;;;;;;0.30;0.30;;;13.70;91.90;;;;;;5058200;28;20045;-83
2023/06/14 02:07:47;;;;;;;0.20;0.20;;;13.60;92.50;;;;;;5064342;28;20105;-83
2023/06/14 02:10:14;;;;;;;0.30;0.30;;;13.60;92.90;;;;;;5065672;28;20039;-83
2023/06/14 02:12:40;;;;;;;0.20;0.20;;;13.60;93.00;;;;;;5064187;28;20045;-84
2023/06/14 02:15:06;;;;;;;0.25;0.25;;;13.50;93.40;;;;;;5066111;28;20048;-83
2023/06/14 02:17:32;;;;;;;0.50;0.50;;;13.50;93.60;;;;;;5066423;28;20082;-83
2023/06/14 02:19:58;;;;;;;3.40;0.73;;;13.50;93.90;;;;;;5066252;28;20076;-83
2023/06/14 02:22:24;;;;;;;0.20;0.20;;;13.40;94.10;;;;;;5063712;28;20096;-83
2023/06/14 02:24:50;;;;;;;0.30;0.30;;;13.40;94.70;;;;;;5067795;28;20075;-83
2023/06/14 02:27:16;;;;;;;0.30;0.30;;;13.40;94.90;;;;;;5067504;28;20090;-82
2023/06/14 02:29:42;;;;;;;0.30;0.30;;;13.40;94.70;;;;;;5052498;28;20080;-82
2023/06/14 02:32:08;;;;;;;0.77;0.55;;;13.40;94.60;;;;;;5064322;28;20398;-83
2023/06/14 02:34:34;;;;;;;0.50;0.50;;;13.30;94.90;;;;;;5067398;28;20085;-83
2023/06/14 02:37:02;;;;;;;0.77;0.77;;;13.30;95.00;;;;;;5068330;28;20432;-82
2023/06/14 02:39:28;;;;;;;0.20;0.20;;;13.20;95.40;;;;;;5063186;28;20076;-82
2023/06/14 02:41:54;;;;;;;0.50;0.50;;;13.20;95.70;;;;;;5064082;28;20051;-82
2023/06/14 02:44:25;;;;;;;0.30;0.30;;;13.20;95.40;;;;;;5060238;28;20048;-82
2023/06/14 02:46:51;;;;;;;0.50;0.50;;;13.20;95.60;;;;;;5063348;28;20049;-82
2023/06/14 02:49:17;;;;;;;0.30;0.30;;;13.20;95.90;;;;;;5061748;28;20037;-82
2023/06/14 02:51:45;;;;;;;0.30;0.30;;;13.20;96.40;;;;;;5065080;28;20044;-82
2023/06/14 02:54:12;;;;;;;0.45;0.45;;;13.20;96.00;;;;;;5059865;28;20047;-82
2023/06/14 02:56:37;;;;;;;0.40;0.40;;;13.10;96.60;;;;;;5063905;28;20048;-82
2023/06/14 02:59:03;;;;;;;0.40;0.40;;;13.10;96.20;;;;;;5064653;28;20469;-82
2023/06/14 03:01:34;;;;;;;0.30;0.30;;;13.10;96.30;;;;;;5065578;28;20151;-83
2023/06/14 03:04:03;;;;;;;0.20;0.20;;;13.10;96.60;;;;;;5064494;28;20052;-82
2023/06/14 03:06:33;;;;;;;0.40;0.40;;;13.10;97.00;;;;;;5062777;28;20047;-82
2023/06/14 03:09:04;;;;;;;0.40;0.40;;;13.10;97.20;;;;;;5067691;28;20040;-82
2023/06/14 03:11:31;;;;;;;0.30;0.30;;;13.00;97.50;;;;;;5066378;28;20041;-82
2023/06/14 03:13:57;;;;;;;0.63;0.60;;;13.00;97.40;;;;;;5064851;28;20044;-82
2023/06/14 03:16:24;;;;;;;0.30;0.30;;;13.00;97.80;;;;;;5056693;28;20045;-82
2023/06/14 03:18:53;;;;;;;0.20;0.20;;;13.00;97.70;;;;;;5064568;28;20048;-81
2023/06/14 03:21:22;;;;;;;0.32;0.32;;;13.00;97.80;;;;;;5049043;28;20070;-82
2023/06/14 03:23:48;;;;;;;0.40;0.40;;;13.00;98.30;;;;;;5060100;28;20061;-82
2023/06/14 03:26:17;;;;;;;2.92;0.63;;;13.00;98.80;;;;;;5049677;28;20036;-82
2023/06/14 03:28:45;;;;;;;0.60;0.60;;;13.00;98.70;;;;;;5059489;28;20053;-82
2023/06/14 03:31:11;;;;;;;0.77;0.50;;;13.00;98.70;;;;;;5066886;28;20098;-82
2023/06/14 03:33:38;;;;;;;0.43;0.40;;;13.00;99.00;;;;;;5067342;28;20095;-80
2023/06/14 03:36:04;;;;;;;0.32;0.32;;;13.10;99.30;;;;;;5063459;28;20068;-80
2023/06/14 03:38:30;;;;;;;5.10;1.17;;;13.10;99.20;;;;;;5071286;28;20190;-80
2023/06/14 03:40:56;;;;;;;0.20;0.20;;;13.10;99.20;;;;;;5068369;28;20481;-80
2023/06/14 03:43:22;;;;;;;0.47;0.47;;;13.10;99.50;;;;;;5061931;28;20068;-81
2023/06/14 03:45:47;;;;;;;0.35;0.35;;;13.10;99.40;;;;;;5065772;28;20451;-80
2023/06/14 03:48:13;;;;;;;0.30;0.30;;;13.20;99.90;;;;;;5068950;28;20124;-80
2023/06/14 03:50:39;;;;;;;0.45;0.45;;;13.20;99.80;;;;;;5069659;28;20425;-81
2023/06/14 03:53:05;;;;;;;0.45;0.45;;;13.20;99.90;;;;;;5064474;28;20056;-80
2023/06/14 03:55:33;;;;;;;0.30;0.30;;;13.20;99.90;;;;;;5069804;28;20423;-80
2023/06/14 03:57:59;;;;;;;0.47;0.47;;;13.20;99.90;;;;;;5066987;28;20053;-80
2023/06/14 04:00:25;;;;;;;0.75;0.75;;;13.30;99.90;;;;;;5060974;28;20046;-81
2023/06/14 04:02:51;;;;;;;0.35;0.35;;;13.30;99.90;;;;;;5056136;28;20051;-81
2023/06/14 04:05:19;;;;;;;0.38;0.38;;;13.40;99.90;;;;;;5069106;28;20127;-80
2023/06/14 04:07:45;;;;;;;0.27;0.27;;;13.40;99.90;;;;;;5041566;28;20045;-81
2023/06/14 04:10:13;;;;;;;0.73;0.73;;;13.40;99.90;;;;;;5063095;28;20377;-81
2023/06/14 04:12:39;;;;;;;1.30;1.30;;;13.40;99.90;;;;;;5066733;28;20052;-81
2023/06/14 04:15:08;;;;;;;0.70;0.43;;;13.50;99.90;;;;;;5068107;28;20515;-81
2023/06/14 04:17:34;;;;;;;0.63;0.63;;;13.50;99.90;;;;;;5053932;28;20450;-80
2023/06/14 04:20:00;;;;;;;0.75;0.75;;;13.60;99.90;;;;;;5070922;28;20127;-81
2023/06/14 04:22:30;;;;;;;0.80;0.80;;;13.70;99.90;;;;;;5071286;28;20117;-81
2023/06/14 04:24:56;;;;;;;0.80;0.52;;;13.80;99.90;;;;;;5070421;28;20049;-79
2023/06/14 04:27:27;;;;;;;0.45;0.45;;;13.80;99.90;;;;;;5064754;28;20424;-81
2023/06/14 04:29:56;;;;;;;0.22;0.22;;;13.90;99.90;;;;;;5068196;28;20058;-80
2023/06/14 04:32:26;;;;;;;0.25;0.25;;;14.00;99.90;;;;;;5069860;28;20044;-78
2023/06/14 04:34:55;;;;;;;0.30;0.30;;;14.10;99.90;;;;;;5060242;28;20036;-80
2023/06/14 04:37:22;;;;;;;0.85;0.60;;;14.10;99.90;;;;;;5066602;28;20040;-80
2023/06/14 04:39:55;;;;;;;0.30;0.30;;;14.20;99.90;;;;;;5063607;28;20057;-80
2023/06/14 04:42:24;;;;;;;0.20;0.20;;;14.20;99.90;;;;;;5067729;28;20092;-81
2023/06/14 04:44:54;;;;;;;0.52;0.52;;;14.30;99.90;;;;;;5062516;28;20040;-80
2023/06/14 04:47:20;;;;;;;0.45;0.45;;;14.30;99.90;;;;;;5059854;28;20455;-80
2023/06/14 04:49:46;;;;;;;0.30;0.30;;;14.40;99.90;;;;;;5069709;28;20056;-81
2023/06/14 04:52:13;;;;;;;0.50;0.50;;;14.40;99.90;;;;;;5065470;28;20057;-79
2023/06/14 04:54:41;;;;;;;0.60;0.60;;;14.50;99.90;;;;;;5067213;28;20052;-80
2023/06/14 04:57:08;;;;;;;0.60;0.60;;;14.50;99.90;;;;;;5065794;28;20072;-80
2023/06/14 04:59:35;;;;;;;0.32;0.32;;;14.60;99.90;;;;;;5062488;28;20151;-80
2023/06/14 05:02:01;;;;;;;0.63;0.63;;;14.60;99.90;;;;;;5059474;28;20048;-80
2023/06/14 05:04:27;;;;;;;0.93;0.85;;;14.70;99.90;;;;;;5054859;28;20513;-80
2023/06/14 05:06:57;;;;;;;1.42;1.20;;;14.70;99.90;;;;;;5048903;28;21238;-80
2023/06/14 05:09:25;;;;;;;0.43;0.43;;;14.70;99.90;;;;;;5059310;28;20048;-80
2023/06/14 05:11:51;;;;;;;0.35;0.35;;;14.80;99.90;;;;;;5057345;28;20052;-80
2023/06/14 05:14:18;;;;;;;1.58;1.48;;;14.80;99.90;;;;;;5056220;28;20040;-80
2023/06/14 05:16:44;;;;;;;0.70;0.70;;;15.00;99.90;;;;;;5057024;28;20662;-80
2023/06/14 05:19:10;;;;;;;0.98;0.98;;;15.00;99.90;;;;;;5056628;28;20063;-78
2023/06/14 05:21:37;;;;;;;1.48;1.20;;;15.10;99.90;;;;;;5058070;28;20163;-79
2023/06/14 05:24:02;;;;;;;0.65;0.65;;;15.10;99.90;;;;;;5057262;28;20056;-79
2023/06/14 05:26:28;;;;;;;2.92;1.48;;;15.20;99.90;;;;;;5055222;28;20037;-80
2023/06/14 05:28:57;;;;;;;3.83;0.85;;;15.20;99.90;;;;;;5057128;28;20063;-80
2023/06/14 05:31:25;;;;;;;3.38;2.20;;;15.30;99.90;;;;;;5049721;28;20171;-79
2023/06/14 05:33:52;;;;;;;2.13;1.92;;;15.30;99.90;;;;;;5054931;28;20162;-79
2023/06/14 05:36:18;;;;;;;1.50;1.40;;;15.40;99.90;;;;;;5054399;28;20056;-81
2023/06/14 05:38:43;;;;;;;1.80;1.70;;;15.50;99.90;;;;;;5058599;28;21171;-80
2023/06/14 05:41:09;;;;;;;2.38;1.35;;;15.60;99.90;;;;;;5054430;28;20045;-81
2023/06/14 05:43:35;;;;;;;1.35;1.35;;;15.70;99.90;;;;;;5053600;28;20540;-80
2023/06/14 05:46:00;;;;;;;8.57;1.80;;;15.80;99.90;;;;;;5054885;28;20410;-80
2023/06/14 05:48:26;;;;;;;0.75;0.75;;;15.90;99.90;;;;;;5049655;28;20045;-80
2023/06/14 05:50:51;;;;;;;2.45;1.80;;;16.00;99.90;;;;;;5059008;28;20052;-80
2023/06/14 05:53:17;;;;;;;2.63;2.10;;;16.10;99.90;;;;;;5051569;28;20094;-82
2023/06/14 05:55:43;;;;;;;1.58;1.48;;;16.20;99.80;;;;;;5052187;28;20071;-82
2023/06/14 05:58:09;;;;;;;2.78;2.60;;;16.40;99.60;;;;;;5053371;28;20045;-82
2023/06/14 06:00:34;;;;;;;1.45;1.33;;;16.50;99.90;;;;;;5051959;28;20053;-82
2023/06/14 06:03:02;;;;;;;1.10;0.85;;;16.60;99.30;;;;;;5051450;28;20037;-81
2023/06/14 06:05:28;;;;;;;2.38;1.75;;;16.80;99.70;;;;;;5053075;28;20043;-80
2023/06/14 06:07:53;;;;;;;2.53;1.58;;;16.90;98.70;;;;;;5051200;28;20414;-80
2023/06/14 06:10:19;;;;;;;0.88;0.88;;;17.00;98.10;;;;;;5059291;28;20048;-83
2023/06/14 06:12:47;;;;;;;2.35;1.92;;;17.10;98.30;;;;;;5049080;28;20044;-81
2023/06/14 06:15:13;;;;;;;2.78;1.58;;;17.30;97.80;;;;;;5033354;28;20055;-81
2023/06/14 06:17:39;;;;;;;1.52;1.38;;;17.40;97.80;;;;;;5049939;28;20053;-78
2023/06/14 06:20:08;;;;;;;1.77;1.67;;;17.60;96.20;;;;;;5048491;28;20052;-79
2023/06/14 06:22:34;;;;;;;1.10;0.98;;;17.70;96.70;;;;;;5060366;28;20033;-77
2023/06/14 06:25:00;;;;;;;2.22;2.03;;;17.80;96.40;;;;;;5047848;28;20056;-79
2023/06/14 06:27:26;;;;;;;1.48;1.38;;;18.00;95.80;;;;;;5048893;28;20056;-79
2023/06/14 06:29:51;;;;;;;4.20;2.38;;;18.10;94.90;;;;;;5048270;28;20098;-79
2023/06/14 06:32:18;;;;;;;2.08;1.55;;;18.20;94.90;;;;;;5048161;28;20529;-79
2023/06/14 06:34:44;;;;;;;2.33;1.83;;;18.40;94.40;;;;;;5049069;28;20053;-79
2023/06/14 06:37:11;;;;;;;1.48;1.38;;;18.40;94.90;;;;;;5059185;28;20051;-79
2023/06/14 06:39:37;;;;;;;21.17;1.77;;;18.60;93.80;;;;;;5049049;28;20087;-79
2023/06/14 06:42:03;;;;;;;2.45;1.55;;;18.70;93.50;;;;;;5047724;28;20140;-79
2023/06/14 06:44:28;;;;;;;1.92;1.63;;;18.90;93.10;;;;;;5056390;28;20482;-79
2023/06/14 06:46:54;;;;;;;9.27;3.13;;;19.10;92.40;;;;;;5050732;28;20051;-79
2023/06/14 06:49:20;;;;;;;1.42;1.30;;;19.20;92.40;;;;;;5050535;28;20048;-79
2023/06/14 06:52:08;;;;;;;1.85;1.00;;;19.40;91.80;;;;;;5047899;28;20049;-77
2023/06/14 06:54:34;;;;;;;1.08;1.08;;;19.60;92.20;;;;;;5047588;28;20049;-77
2023/06/14 06:57:01;;;;;;;3.30;2.58;;;19.80;91.20;;;;;;5049639;28;21624;-79
2023/06/14 06:59:27;;;;;;;7.88;2.35;;;19.90;90.20;;;;;;5048035;28;20677;-78
2023/06/14 07:01:52;;;;;;;1.15;1.15;;;20.00;90.00;;;;;;5047648;28;20040;-79
2023/06/14 07:04:18;;;;;;;2.35;2.05;;;20.10;88.30;;;;;;5048231;28;20044;-78
2023/06/14 07:06:46;;;;;;;3.38;2.53;;;20.20;89.00;;;;;;5047669;28;20028;-78
2023/06/14 07:09:14;;;;;;;1.30;1.25;;;20.30;88.80;;;;;;5048229;28;20421;-79
2023/06/14 07:11:40;;;;;;;2.08;1.95;;;20.40;88.10;;;;;;5048648;28;20057;-77
2023/06/14 07:14:06;;;;;;;0.80;0.80;;;20.60;87.00;;;;;;5048300;28;20055;-79
2023/06/14 07:16:32;;;;;;;4.88;2.75;;;20.80;86.70;;;;;;5046426;28;20057;-78
2023/06/14 07:18:58;;;;;;;1.70;1.45;;;20.90;85.90;;;;;;5049069;28;20045;-78
2023/06/14 07:21:25;;;;;;;2.72;1.50;;;21.10;85.50;;;;;;5056498;28;20045;-79
2023/06/14 07:23:52;;;;;;;4.43;1.92;;;21.20;82.00;;;;;;5048381;28;20529;-80
2023/06/14 07:26:18;;;;;;;5.00;2.15;;;21.30;83.40;;;;;;5049203;28;20461;-78
2023/06/14 07:28:47;;;;;;;1.83;1.73;;;21.30;82.70;;;;;;5058644;28;20089;-80
2023/06/14 07:31:13;;;;;;;1.50;1.40;;;21.30;82.20;;;;;;5048242;28;20090;-79
2023/06/14 07:33:40;;;;;;;0.95;0.93;;;21.50;81.20;;;;;;5048783;28;20032;-79
2023/06/14 07:36:06;;;;;;;1.50;1.40;;;21.50;81.00;;;;;;5053335;28;20079;-79
2023/06/14 07:38:31;;;;;;;2.00;1.80;;;21.60;81.80;;;;;;5038234;28;20173;-79
2023/06/14 07:40:57;;;;;;;1.35;1.25;;;21.80;80.60;;;;;;5053535;28;20132;-79
2023/06/14 07:43:23;;;;;;;1.45;1.35;;;21.90;78.70;;;;;;5053649;28;21085;-78
2023/06/14 07:45:48;;;;;;;1.33;1.25;;;22.10;79.10;;;;;;5054591;28;20041;-79
2023/06/14 07:48:14;;;;;;;1.48;1.33;;;22.30;78.20;;;;;;5056276;28;20157;-79
2023/06/14 07:50:40;;;;;;;1.13;1.13;;;22.40;76.30;;;;;;5053999;28;20041;-81
2023/06/14 07:53:06;;;;;;;4.28;2.33;;;22.30;72.60;;;;;;5055894;28;20611;-81
2023/06/14 07:55:33;;;;;;;1.33;1.27;;;22.30;74.80;;;;;;5053893;28;20105;-80
2023/06/14 07:57:59;;;;;;;1.60;1.50;;;22.30;73.80;;;;;;5051501;28;20048;-82
2023/06/14 08:00:24;;;;;;;2.13;1.95;;;22.40;73.50;;;;;;5053243;28;20040;-81
2023/06/14 08:02:51;;;;;;;1.00;1.00;;;22.40;74.00;;;;;;5052709;28;20044;-81
2023/06/14 08:05:17;;;;;;;2.28;1.95;;;22.50;75.00;;;;;;5050992;28;20072;-82
2023/06/14 08:07:43;;;;;;;2.25;1.95;;;22.70;71.80;;;;;;5055096;28;20141;-81
2023/06/14 08:10:10;;;;;;;0.98;0.98;;;22.70;72.60;;;;;;5055719;28;20045;-81
2023/06/14 08:12:37;;;;;;;2.97;2.75;;;22.60;73.00;;;;;;5057237;28;20114;-81
2023/06/14 08:15:03;;;;;;;3.60;1.85;;;22.60;72.00;;;;;;5055077;28;20044;-82
2023/06/14 08:17:28;;;;;;;1.67;1.58;;;22.60;71.30;;;;;;5053643;28;20410;-82
2023/06/14 08:19:57;;;;;;;1.50;1.02;;;22.80;72.60;;;;;;5059823;28;20128;-80
2023/06/14 08:22:24;;;;;;;1.83;1.73;;;22.90;70.50;;;;;;5054632;28;20054;-82
2023/06/14 08:24:50;;;;;;;2.53;1.73;;;22.90;69.20;;;;;;5055763;28;20131;-83
2023/06/14 08:27:16;;;;;;;2.13;2.00;;;22.80;70.00;;;;;;5055176;28;20417;-83
2023/06/14 08:29:42;;;;;;;1.73;1.63;;;22.90;69.10;;;;;;5060748;28;20110;-82
2023/06/14 08:32:08;;;;;;;1.40;1.30;;;23.10;69.90;;;;;;5055223;28;20059;-82
2023/06/14 08:34:33;;;;;;;1.42;1.40;;;23.20;68.60;;;;;;5065434;28;20045;-82
2023/06/14 08:36:59;;;;;;;1.08;0.88;;;23.20;68.70;;;;;;5051546;28;20139;-82
2023/06/14 08:39:24;;;;;;;2.38;2.08;;;23.30;69.70;;;;;;5052686;28;20049;-85
2023/06/14 08:41:52;;;;;;;2.47;2.13;;;23.30;68.80;;;;;;5040012;28;20429;-83
2023/06/14 08:44:18;;;;;;;;;;;23.30;69.50;;;;;;5058670;28;20040;-86
2023/06/14 08:46:44;;;;;;;1.05;1.02;;;23.30;69.00;;;;;;5053080;28;19944;-86
2023/06/14 08:49:12;;;;;;;2.17;2.03;;;23.40;69.00;;;;;;5054458;28;20521;-84
2023/06/14 08:51:40;;;;;;;1.33;1.23;;;23.40;68.80;;;;;;5058739;28;20410;-84
2023/06/14 08:54:08;;;;;;;1.25;1.15;;;23.60;69.20;;;;;;5062532;28;20052;-84
2023/06/14 08:56:33;;;;;;;17.60;2.33;;;23.70;67.70;;;;;;5059277;28;20587;-85
2023/06/14 08:59:03;;;;;;;1.83;1.20;;;23.70;68.20;;;;;;5053593;28;20052;-84
2023/06/14 09:01:34;;;;;;;1.73;1.27;;;23.80;67.20;;;;;;5052722;28;20175;-86
2023/06/14 09:04:00;;;;;;;1.10;1.00;;;23.80;67.80;;;;;;5055855;28;20072;-84
2023/06/14 09:06:28;;;;;;;1.00;0.98;;;23.80;65.70;;;;;;5066038;28;20467;-84
2023/06/14 09:08:55;;;;;;;;;;;23.80;67.40;;;;;;5068031;28;20048;-85
2023/06/14 09:11:21;;;;;;;;;;;23.80;66.60;;;;;;5069909;28;20432;-86
2023/06/14 09:13:47;;;;;;;1.33;1.23;;;23.70;65.40;;;;;;5063859;28;19923;-86
2023/06/14 09:16:13;;;;;;;1.42;1.42;;;23.50;66.10;;;;;;5067119;28;20508;-85
2023/06/14 09:18:44;;;;;;;3.15;2.22;;;23.50;66.40;;;;;;5068888;28;20059;-84
2023/06/14 09:21:11;;;;;;;3.50;1.27;;;23.50;67.50;;;;;;5055278;28;20417;-85
2023/06/14 09:23:42;;;;;;;1.60;1.50;;;23.70;66.60;;;;;;5057645;28;20044;-84
2023/06/14 09:26:15;;;;;;;0.93;0.82;;;23.70;67.60;;;;;;5067809;28;20067;-86
2023/06/14 09:28:43;;;;;;;4.15;1.67;;;23.90;65.40;;;;;;5065229;28;20048;-83
2023/06/14 09:31:13;;;;;;;1.58;1.05;;;23.90;64.90;;;;;;5065721;28;20044;-83
2023/06/14 09:33:47;;;;;;;1.25;1.00;;;23.80;66.30;;;;;;5066538;28;20903;-82
2023/06/14 09:36:20;;;;;;;2.22;1.80;;;23.90;63.40;;;;;;5053267;28;20440;-83
2023/06/14 09:39:04;;;;;;;3.35;2.03;;;23.90;63.90;;;;;;5056950;28;20127;-83
2023/06/14 09:41:42;;;;;;;1.55;1.45;;;23.90;61.50;;;;;;5065103;28;20048;-83
2023/06/14 09:44:09;;;;;;;1.05;0.80;;;23.90;61.30;;;;;;5057740;28;20071;-83
2023/06/14 09:46:36;;;;;;;1.95;1.70;;;23.90;61.20;;;;;;5067568;28;20033;-83
2023/06/14 09:49:03;;;;;;;1.83;1.70;;;23.90;61.40;;;;;;5067462;28;20084;-83
2023/06/14 09:51:30;;;;;;;2.03;1.17;;;23.80;58.00;;;;;;5060202;28;20045;-82
2023/06/14 09:54:04;;;;;;;0.80;0.80;;;23.70;59.50;;;;;;5059270;28;20052;-82
2023/06/14 09:56:36;;;;;;;0.77;0.77;;;23.80;59.80;;;;;;5059485;28;20102;-81
2023/06/14 09:59:05;;;;;;;0.68;0.68;;;24.00;61.30;;;;;;5065352;28;20052;-84
2023/06/14 10:01:32;;;;;;;2.30;2.10;;;24.20;61.00;;;;;;5050831;28;20055;-84
2023/06/14 10:04:20;;;;;;;1.10;1.00;;;24.20;59.40;;;;;;5062576;28;20044;-85
2023/06/14 10:06:46;;;;;;;0.73;0.73;;;24.20;59.60;;;;;;5065484;28;20398;-85
2023/06/14 10:09:14;;;;;;;1.35;1.20;;;24.20;59.70;;;;;;5054338;28;20048;-83
2023/06/14 10:11:43;;;;;;;2.35;1.65;;;24.20;60.30;;;;;;5053356;28;20453;-81
2023/06/14 10:14:12;;;;;;;3.42;1.15;;;24.30;60.80;;;;;;5058703;28;20118;-86
2023/06/14 10:16:48;;;;;;;0.70;0.70;;;24.30;59.30;;;;;;5064891;28;20044;-83
2023/06/14 10:19:35;;;;;;;0.75;0.75;;;24.20;59.40;;;;;;5063244;28;20080;-82
2023/06/14 10:22:12;;;;;;;1.15;1.02;;;24.40;58.10;;;;;;5060129;28;20059;-84
2023/06/14 10:24:43;;;;;;;0.93;0.93;;;24.50;57.90;;;;;;5059533;28;20048;-83
2023/06/14 10:27:12;;;;;;;1.15;0.65;;;24.40;59.30;;;;;;5058289;28;20049;-85
2023/06/14 10:29:53;;;;;;;0.98;0.90;;;24.40;59.30;;;;;;5060433;28;20044;-85
2023/06/14 10:32:19;;;;;;;1.05;1.05;;;24.30;58.50;;;;;;5059397;28;20060;-83
2023/06/14 10:34:45;;;;;;;1.33;1.25;;;24.50;57.60;;;;;;5041180;28;20163;-81
2023/06/14 10:37:12;;;;;;;0.88;0.88;;;24.50;57.70;;;;;;5063398;28;20049;-83
2023/06/14 10:39:43;;;;;;;1.17;1.08;;;24.50;56.80;;;;;;5054649;28;20080;-85
2023/06/14 10:42:09;;;;;;;1.63;1.33;;;24.50;57.40;;;;;;5056809;28;20090;-82
2023/06/14 10:44:51;;;;;;;1.15;1.08;;;24.50;57.20;;;;;;5056769;28;20415;-83
2023/06/14 10:47:22;;;;;;;1.10;1.10;;;24.60;57.40;;;;;;5056896;28;20140;-84
2023/06/14 10:49:54;;;;;;;1.75;1.65;;;24.80;57.80;;;;;;5053206;28;20414;-82
2023/06/14 10:52:28;;;;;;;1.90;1.77;;;24.80;56.30;;;;;;5052341;28;20060;-81
2023/06/14 10:55:05;;;;;;;0.85;0.60;;;24.80;56.70;;;;;;5060010;28;20045;-82
2023/06/14 10:57:35;;;;;;;1.10;1.10;;;24.70;57.40;;;;;;5054542;28;20036;-81
2023/06/14 11:00:12;;;;;;;0.93;0.93;;;24.60;55.90;;;;;;5051752;28;20071;-84
2023/06/14 11:02:45;;;;;;;0.40;0.40;;;24.50;57.10;;;;;;5057620;28;20063;-83
2023/06/14 11:05:14;;;;;;;1.40;1.33;;;24.50;56.20;;;;;;5053075;28;20048;-83
2023/06/14 11:07:58;;;;;;;1.27;0.93;;;24.50;55.90;;;;;;5056289;28;20047;-84
2023/06/14 11:10:23;;;;;;;0.98;0.98;;;24.50;56.40;;;;;;5051502;28;20048;-84
2023/06/14 11:12:52;;;;;;;0.90;0.82;;;24.50;56.30;;;;;;5055388;28;20406;-82
2023/06/14 11:15:17;;;;;;;0.60;0.60;;;24.60;57.40;;;;;;5056193;28;20052;-83
2023/06/14 11:17:53;;;;;;;1.10;1.10;;;24.80;56.50;;;;;;5053441;28;20037;-83
2023/06/14 11:20:20;;;;;;;1.23;1.10;;;24.90;57.00;;;;;;5050774;28;20197;-83
2023/06/14 11:22:45;;;;;;;0.50;0.50;;;24.90;55.70;;;;;;5055447;28;20546;-83
2023/06/14 11:25:12;;;;;;;1.38;0.80;;;24.90;57.20;;;;;;5056156;28;20059;-81
2023/06/14 11:27:37;;;;;;;0.98;0.93;;;25.10;57.20;;;;;;5036539;28;20143;-84
2023/06/14 11:30:06;;;;;;;1.50;0.98;;;25.20;55.30;;;;;;5052397;28;20063;-84
2023/06/14 11:32:33;;;;;;;0.80;0.80;;;25.30;56.20;;;;;;5053229;28;20052;-81
2023/06/14 11:34:59;;;;;;;1.30;1.20;;;25.50;56.90;;;;;;5052260;28;20084;-83
2023/06/14 11:37:32;;;;;;;1.55;1.45;;;25.50;55.70;;;;;;5065477;28;20115;-82
2023/06/14 11:40:01;;;;;;;0.98;0.98;;;25.50;54.90;;;;;;5053319;28;20045;-84
2023/06/14 11:42:27;;;;;;;0.88;0.88;;;25.30;54.60;;;;;;5051776;28;20082;-84
2023/06/14 11:44:54;;;;;;;3.55;1.88;;;25.40;55.60;;;;;;5053992;28;20424;-82
2023/06/14 11:47:20;;;;;;;0.80;0.80;;;25.30;55.30;;;;;;5053956;28;20132;-83
2023/06/14 11:49:46;;;;;;;0.52;0.52;;;25.20;55.60;;;;;;5052416;28;20718;-84
2023/06/14 11:52:13;;;;;;;2.10;1.80;;;25.10;56.30;;;;;;5058337;28;20038;-84
2023/06/14 11:54:40;;;;;;;1.85;1.00;;;25.20;55.30;;;;;;5058592;28;20420;-85
2023/06/14 11:57:07;;;;;;;0.95;0.95;;;25.20;55.50;;;;;;5064900;28;20060;-83
2023/06/14 11:59:37;;;;;;;1.55;1.45;;;25.40;56.90;;;;;;5057120;28;20151;-84
2023/06/14 12:02:04;;;;;;;0.68;0.68;;;25.60;56.20;;;;;;5057177;28;20056;-84
2023/06/14 12:04:30;;;;;;;3.30;1.65;;;25.60;55.40;;;;;;5058938;28;20059;-84
2023/06/14 12:06:57;;;;;;;0.70;0.70;;;25.60;55.70;;;;;;5058302;28;20048;-84
2023/06/14 12:09:25;;;;;;;0.98;0.95;;;25.50;55.30;;;;;;5045372;28;20041;-82
2023/06/14 12:12:01;;;;;;;1.42;1.42;;;25.60;55.00;;;;;;5054961;28;20052;-81
2023/06/14 12:14:32;;;;;;;3.03;1.77;;;25.50;55.80;;;;;;5058543;28;20151;-84
2023/06/14 12:17:09;;;;;;;1.20;1.10;;;25.40;56.00;;;;;;5061465;28;20123;-85
2023/06/14 12:19:45;;;;;;;0.50;0.50;;;25.40;56.20;;;;;;5053825;28;20044;-83
2023/06/14 12:22:13;;;;;;;1.40;1.30;;;25.30;55.70;;;;;;5054221;28;20044;-83
2023/06/14 12:24:39;;;;;;;0.68;0.68;;;25.40;56.80;;;;;;5056572;28;20465;-81
2023/06/14 12:27:05;;;;;;;1.30;1.20;;;25.40;56.20;;;;;;5059213;28;20664;-84
2023/06/14 12:29:31;;;;;;;0.70;0.70;;;25.60;55.90;;;;;;5055890;28;20061;-83
2023/06/14 12:31:57;;;;;;;0.88;0.88;;;25.80;54.80;;;;;;5051904;28;20044;-82
2023/06/14 12:34:27;;;;;;;0.93;0.93;;;26.00;56.20;;;;;;5056327;28;20040;-84
2023/06/14 12:36:56;;;;;;;0.88;0.88;;;25.90;54.50;;;;;;5057538;28;20040;-84
2023/06/14 12:39:22;;;;;;;0.90;0.90;;;25.80;54.90;;;;;;5057509;28;20051;-84
2023/06/14 12:41:48;;;;;;;0.75;0.75;;;25.50;54.40;;;;;;5055618;28;20177;-81
2023/06/14 12:44:15;;;;;;;2.67;1.52;;;25.40;56.00;;;;;;5059393;28;20135;-83
2023/06/14 12:46:42;;;;;;;1.00;1.00;;;25.50;56.60;;;;;;5056417;28;20056;-83
2023/06/14 12:49:10;;;;;;;2.13;2.03;;;25.60;55.60;;;;;;5054966;28;20056;-80
2023/06/14 12:51:36;;;;;;;0.88;0.88;;;25.70;55.80;;;;;;5054950;28;20053;-82